Time;durP1;ratioP1;P1;durP2;ratioP2;P2;SDS_P1;SDS_P2;PMS_P1;PMS_P2;Temp;Humidity;BMP_temperature;BMP_pressure;BME280_temperature;BME280_humidity;BME280_pressure;Samples;Min_cycle;Max_cycle;Signal;HPM_P1;HPM_P2
2021/03/28 00:00:23;;;;;;;53.72;29.65;;;;;;;6.95;55.01;95673.66;4230619;28;20048;-84
2021/03/28 00:02:32;;;;;;;55.63;30.33;;;;;;;6.91;55.65;95674.84;4226332;28;20047;-84
2021/03/28 00:04:49;;;;;;;59.97;32.42;;;;;;;6.85;55.83;95678.72;4233498;28;20050;-83
2021/03/28 00:06:59;;;;;;;59.50;34.60;;;;;;;6.84;56.09;95684.88;4234557;28;20507;-83
2021/03/28 00:09:27;;;;;;;69.00;36.13;;;;;;;6.55;55.52;95674.78;4196019;28;20052;-85
2021/03/28 00:11:29;;;;;;;58.53;33.42;;;;;;;6.04;56.60;95685.34;4218965;28;20483;-84
2021/03/28 00:13:30;;;;;;;54.75;30.70;;;;;;;5.65;57.74;95681.09;4212311;28;20055;-83
2021/03/28 00:15:42;;;;;;;47.22;27.85;;;;;;;5.55;58.00;95683.50;4212824;28;20479;-82
2021/03/28 00:17:49;;;;;;;49.78;27.00;;;;;;;4.90;58.94;95687.78;4212108;28;20123;-84
2021/03/28 00:20:08;;;;;;;52.75;27.58;;;;;;;4.81;59.90;95692.72;4212243;28;20496;-83
2021/03/28 00:22:31;;;;;;;75.07;43.15;;;;;;;4.70;60.36;95693.44;4213714;28;20048;-84
2021/03/28 00:24:58;;;;;;;66.47;38.08;;;;;;;4.75;60.51;95700.91;4211822;28;20055;-85
2021/03/28 00:27:11;;;;;;;73.85;39.67;;;;;;;4.60;60.49;95695.75;4221492;28;20081;-83
2021/03/28 00:29:23;;;;;;;69.60;43.10;;;;;;;4.70;60.73;95694.25;4228708;28;20055;-82
2021/03/28 00:31:30;;;;;;;74.25;41.95;;;;;;;4.81;60.62;95695.34;4215138;28;20461;-83
2021/03/28 00:33:31;;;;;;;81.10;44.95;;;;;;;4.87;60.18;95703.56;4232918;28;20054;-84
2021/03/28 00:35:35;;;;;;;84.63;46.42;;;;;;;4.88;60.68;95697.44;4213296;28;20043;-84
2021/03/28 00:37:36;;;;;;;91.78;46.38;;;;;;;4.82;60.27;95692.66;4212875;28;20396;-84
2021/03/28 00:39:47;;;;;;;86.82;47.25;;;;;;;4.90;60.33;95689.53;4212460;28;20060;-83
2021/03/28 00:42:08;;;;;;;92.38;49.45;;;;;;;4.89;60.26;95699.09;4231837;28;20132;-83
2021/03/28 00:44:17;;;;;;;102.85;53.78;;;;;;;4.98;60.61;95691.66;4205397;28;20118;-84
2021/03/28 00:46:28;;;;;;;118.68;55.25;;;;;;;4.79;61.11;95692.81;4196038;28;20044;-81
2021/03/28 00:48:49;;;;;;;106.37;53.93;;;;;;;4.84;60.51;95695.97;4225010;28;20047;-84
2021/03/28 00:51:19;;;;;;;101.82;53.00;;;;;;;4.95;60.10;95697.88;4212887;28;20384;-84
2021/03/28 00:53:42;;;;;;;99.97;51.80;;;;;;;5.15;59.72;95690.53;4183419;28;20045;-82
2021/03/28 00:56:20;;;;;;;93.18;49.70;;;;;;;5.27;59.19;95693.16;4230126;28;20043;-84
2021/03/28 00:58:26;;;;;;;85.07;46.72;;;;;;;5.40;58.61;95687.97;4178547;27;20051;-84
2021/03/28 01:00:46;;;;;;;84.53;44.42;;;;;;;5.49;58.32;95694.31;4220552;28;20127;-84
2021/03/28 01:03:01;;;;;;;85.57;44.08;;;;;;;5.56;57.77;95690.34;4216163;28;20055;-85
2021/03/28 01:05:41;;;;;;;84.45;47.38;;;;;;;5.63;57.95;95689.00;4217133;28;20107;-81
2021/03/28 01:07:45;;;;;;;79.22;46.75;;;;;;;5.68;57.68;95686.94;4228551;28;20044;-83
2021/03/28 01:10:11;;;;;;;84.22;45.88;;;;;;;5.72;57.94;95683.19;4216906;28;20048;-83
2021/03/28 01:12:52;;;;;;;81.53;44.97;;;;;;;5.77;57.84;95679.44;4221329;28;20051;-83
2021/03/28 01:15:24;;;;;;;86.55;46.35;;;;;;;5.80;57.35;95680.03;4212000;28;20047;-83
2021/03/28 01:18:20;;;;;;;78.97;43.13;;;;;;;5.80;57.73;95679.22;4222714;28;20051;-82
2021/03/28 01:20:38;;;;;;;76.55;44.08;;;;;;;5.82;57.36;95678.16;4164712;28;20503;-83
2021/03/28 01:22:45;;;;;;;73.53;43.22;;;;;;;5.83;57.52;95677.25;4194640;28;20543;-83
2021/03/28 01:24:49;;;;;;;72.93;40.05;;;;;;;5.82;57.46;95680.75;4233609;28;20048;-84
2021/03/28 01:27:12;;;;;;;70.60;40.42;;;;;;;5.81;57.79;95673.91;4238254;28;20048;-82
2021/03/28 01:29:28;;;;;;;70.78;40.47;;;;;;;5.81;58.25;95675.66;4240703;28;20108;-82
2021/03/28 01:31:51;;;;;;;70.05;39.50;;;;;;;5.84;58.02;95678.06;4237417;27;20044;-82
2021/03/28 01:34:01;;;;;;;64.35;38.25;;;;;;;5.81;57.77;95678.25;4202109;28;20139;-81
2021/03/28 01:36:07;;;;;;;71.97;38.90;;;;;;;5.79;57.71;95683.59;4216290;28;20098;-83
2021/03/28 01:38:18;;;;;;;64.72;36.33;;;;;;;5.81;57.68;95688.66;4236902;27;20047;-81
2021/03/28 01:40:25;;;;;;;67.72;36.58;;;;;;;5.79;58.23;95687.97;4213567;28;20048;-83
2021/03/28 01:42:48;;;;;;;69.28;37.95;;;;;;;5.83;58.31;95697.19;4215704;28;20093;-83
2021/03/28 01:44:53;;;;;;;68.60;39.13;;;;;;;5.85;57.92;95692.72;4216986;28;20044;-83
2021/03/28 01:47:10;;;;;;;64.88;37.53;;;;;;;5.87;57.58;95686.50;4205334;28;20040;-81
2021/03/28 01:49:33;;;;;;;63.92;37.33;;;;;;;5.91;56.97;95685.31;4234212;28;20124;-84
2021/03/28 01:51:48;;;;;;;70.57;37.50;;;;;;;5.94;57.20;95687.75;4239014;27;20055;-86
2021/03/28 01:54:05;;;;;;;67.97;37.92;;;;;;;5.86;57.79;95689.19;4216461;28;20495;-85
2021/03/28 01:56:14;;;;;;;67.75;38.75;;;;;;;5.79;57.67;95690.56;4216195;28;20048;-83
2021/03/28 01:58:36;;;;;;;61.28;36.58;;;;;;;5.74;57.88;95691.72;4216803;28;20048;-83
2021/03/28 02:01:00;;;;;;;69.05;37.15;;;;;;;5.73;57.65;95690.03;4214040;28;20074;-84
2021/03/28 02:03:24;;;;;;;60.95;34.95;;;;;;;5.76;57.36;95696.78;4227771;28;20080;-84
2021/03/28 02:05:44;;;;;;;63.35;36.10;;;;;;;5.77;57.40;95692.44;4192317;28;20040;-84
2021/03/28 02:08:03;;;;;;;63.08;36.28;;;;;;;5.79;57.96;95685.38;4214150;28;20048;-84
2021/03/28 02:10:31;;;;;;;64.55;35.40;;;;;;;5.76;58.11;95688.97;4231303;28;20051;-83
2021/03/28 02:12:38;;;;;;;56.83;33.47;;;;;;;5.78;57.51;95687.13;4188471;28;20048;-82
2021/03/28 02:15:08;;;;;;;61.17;36.00;;;;;;;5.76;57.83;95683.78;4228818;28;20536;-85
2021/03/28 02:17:29;;;;;;;59.72;35.35;;;;;;;5.73;57.94;95679.63;4215687;28;20084;-84
2021/03/28 02:20:09;;;;;;;52.60;31.67;;;;;;;5.74;57.75;95690.84;4210182;28;20067;-84
2021/03/28 02:22:25;;;;;;;56.13;33.58;;;;;;;5.72;57.98;95680.59;4214917;28;20056;-84
2021/03/28 02:24:46;;;;;;;54.28;33.50;;;;;;;5.69;57.08;95677.34;4219642;28;20044;-83
2021/03/28 02:27:00;;;;;;;52.10;33.38;;;;;;;5.62;57.40;95681.31;4224435;28;20051;-82
2021/03/28 02:29:21;;;;;;;56.80;34.38;;;;;;;5.55;57.91;95683.50;4215299;28;20048;-83
2021/03/28 02:31:34;;;;;;;54.97;34.30;;;;;;;5.28;58.14;95686.19;4221523;28;20053;-83
2021/03/28 02:33:51;;;;;;;59.88;34.10;;;;;;;5.25;58.75;95694.19;4232301;28;20442;-83
2021/03/28 02:36:20;;;;;;;57.95;35.50;;;;;;;5.12;59.63;95694.19;4230515;28;20052;-82
2021/03/28 02:38:58;;;;;;;65.57;34.78;;;;;;;5.16;60.21;95693.00;4222909;28;20043;-84
2021/03/28 02:41:00;;;;;;;64.32;36.45;;;;;;;5.22;59.80;95697.81;4230798;28;20051;-83
2021/03/28 02:43:11;;;;;;;70.57;36.10;;;;;;;5.29;59.08;95703.41;4217016;28;20486;-85
2021/03/28 02:45:33;;;;;;;56.92;34.70;;;;;;;5.32;59.79;95703.22;4223263;28;20483;-84
2021/03/28 02:47:53;;;;;;;59.55;34.15;;;;;;;5.37;59.64;95705.53;4214955;28;20051;-85
2021/03/28 02:50:22;;;;;;;57.83;35.60;;;;;;;5.36;58.83;95711.66;4207979;28;20052;-83
2021/03/28 02:52:35;;;;;;;62.25;35.35;;;;;;;5.32;59.60;95706.66;4232387;28;20047;-82
2021/03/28 02:54:51;;;;;;;63.85;37.88;;;;;;;5.34;59.54;95712.59;4245634;27;20054;-83
2021/03/28 02:57:03;;;;;;;66.63;36.00;;;;;;;5.38;59.05;95715.81;4214516;28;20044;-86
2021/03/28 02:59:15;;;;;;;60.47;36.17;;;;;;;5.42;58.83;95716.44;4241974;27;20104;-83
2021/03/28 03:01:40;;;;;;;62.60;34.92;;;;;;;5.44;58.97;95710.22;4214805;28;20044;-71
2021/03/28 03:04:05;;;;;;;66.18;37.05;;;;;;;5.42;58.95;95719.03;4216970;28;20043;-71
2021/03/28 03:06:44;;;;;;;73.93;36.42;;;;;;;5.37;59.60;95713.31;4223420;28;20051;-71
2021/03/28 03:09:20;;;;;;;72.50;35.67;;;;;;;5.33;59.16;95721.31;4190680;28;20051;-83
2021/03/28 03:11:27;;;;;;;68.45;35.67;;;;;;;5.33;58.79;95716.13;4233077;28;20051;-82
2021/03/28 03:13:35;;;;;;;63.58;36.00;;;;;;;5.37;58.84;95713.31;4229549;28;20077;-84
2021/03/28 03:15:52;;;;;;;58.58;35.42;;;;;;;5.38;59.36;95714.97;4227752;27;20047;-83
2021/03/28 03:18:18;;;;;;;57.67;35.95;;;;;;;5.37;59.24;95714.13;4228053;27;20058;-83
2021/03/28 03:20:56;;;;;;;63.67;36.58;;;;;;;5.37;59.17;95714.13;4216054;28;20058;-83
2021/03/28 03:23:49;;;;;;;64.45;34.92;;;;;;;5.39;59.84;95721.84;4226131;28;20047;-80
2021/03/28 03:26:06;;;;;;;52.90;31.90;;;;;;;5.34;59.66;95730.78;4222042;28;20585;-82
2021/03/28 03:28:23;;;;;;;57.50;32.00;;;;;;;5.28;60.26;95735.53;4209291;28;20043;-83
2021/03/28 03:30:35;;;;;;;58.70;34.88;;;;;;;5.25;60.22;95734.00;4222516;28;20044;-84
2021/03/28 03:33:01;;;;;;;59.40;33.83;;;;;;;5.28;59.71;95731.19;4254259;27;20463;-83
2021/03/28 03:35:30;;;;;;;52.42;31.90;;;;;;;5.30;60.11;95729.31;4237985;27;20059;-83
2021/03/28 03:38:09;;;;;;;52.50;30.55;;;;;;;5.33;60.06;95738.66;4218573;28;20039;-84
2021/03/28 03:40:16;;;;;;;45.85;27.90;;;;;;;5.28;60.42;95738.16;4232593;28;20101;-84
2021/03/28 03:42:26;;;;;;;56.28;27.30;;;;;;;5.22;60.15;95730.75;4233054;28;20048;-81
2021/03/28 03:44:54;;;;;;;45.92;26.33;;;;;;;5.20;59.98;95737.81;4232012;28;20050;-83
2021/03/28 03:47:06;;;;;;;52.10;27.05;;;;;;;5.19;60.73;95736.16;4232245;28;20085;-82
2021/03/28 03:49:10;;;;;;;37.00;23.65;;;;;;;5.18;60.72;95742.28;4213897;28;20044;-84
2021/03/28 03:51:30;;;;;;;36.17;22.58;;;;;;;5.18;60.45;95740.50;4231583;28;20047;-83
2021/03/28 03:53:40;;;;;;;39.92;22.05;;;;;;;5.19;59.67;95742.19;4213836;28;20050;-83
2021/03/28 03:55:43;;;;;;;37.80;21.40;;;;;;;5.20;60.11;95745.59;4214039;28;20047;-81
2021/03/28 03:57:54;;;;;;;33.78;22.17;;;;;;;5.20;60.14;95746.44;4232001;28;20043;-83
2021/03/28 04:00:14;;;;;;;36.40;23.45;;;;;;;5.21;60.19;95742.09;4195905;28;20067;-71
2021/03/28 04:02:31;;;;;;;39.72;20.90;;;;;;;5.21;60.24;95745.50;4228604;28;20047;-70
2021/03/28 04:05:19;;;;;;;37.17;21.42;;;;;;;5.22;60.08;95752.34;4227175;28;20414;-70
2021/03/28 04:07:32;;;;;;;35.38;21.63;;;;;;;5.20;60.53;95750.81;4201884;28;20049;-71
2021/03/28 04:09:45;;;;;;;34.33;20.75;;;;;;;5.12;60.48;95748.72;4209103;28;20050;-70
2021/03/28 04:12:12;;;;;;;38.88;22.13;;;;;;;5.07;59.97;95749.00;4191541;28;20055;-70
2021/03/28 04:14:40;;;;;;;37.38;21.80;;;;;;;5.14;60.49;95754.63;4209534;28;20060;-71
2021/03/28 04:17:16;;;;;;;41.65;23.15;;;;;;;4.96;60.80;95761.84;4227007;28;20047;-72
2021/03/28 04:19:17;;;;;;;;;;;;;;;5.03;60.64;95764.88;4228632;28;20517;-70
2021/03/28 04:21:48;;;;;;;45.17;23.13;;;;;;;5.06;60.86;95767.28;4223353;28;20019;-70
2021/03/28 04:24:11;;;;;;;40.30;23.58;;;;;;;5.10;59.87;95771.38;4198451;28;20065;-70
2021/03/28 04:26:48;;;;;;;44.70;22.77;;;;;;;5.17;60.63;95779.59;4226632;28;20056;-69
2021/03/28 04:28:58;;;;;;;41.00;24.95;;;;;;;5.13;60.38;95771.16;4162647;28;20052;-71
2021/03/28 04:31:39;;;;;;;49.47;25.92;;;;;;;5.06;60.81;95775.09;4209044;28;20062;-71
2021/03/28 04:34:09;;;;;;;43.65;25.70;;;;;;;5.12;60.29;95782.47;4225558;28;20063;-70
2021/03/28 04:36:32;;;;;;;43.60;24.90;;;;;;;5.21;59.99;95781.88;4189224;28;20556;-72
2021/03/28 04:39:07;;;;;;;41.78;24.83;;;;;;;5.31;60.01;95782.09;4210653;28;20090;-70
2021/03/28 04:41:26;;;;;;;35.78;21.73;;;;;;;5.38;59.70;95783.38;4224870;28;20040;-71
2021/03/28 04:43:55;;;;;;;43.55;23.17;;;;;;;5.42;59.48;95786.59;4228267;28;20131;-70
2021/03/28 04:46:25;;;;;;;38.60;22.30;;;;;;;5.46;59.65;95788.91;4226801;28;20056;-71
2021/03/28 04:48:58;;;;;;;44.63;24.25;;;;;;;5.52;59.40;95793.69;4228203;28;20044;-71
2021/03/28 04:51:27;;;;;;;42.75;23.10;;;;;;;5.62;59.92;95795.69;4226248;28;20047;-71
2021/03/28 04:54:00;;;;;;;42.88;23.63;;;;;;;5.78;59.63;95795.50;4207051;28;20095;-71
2021/03/28 04:56:23;;;;;;;42.33;24.27;;;;;;;5.83;58.88;95801.22;4154350;28;20493;-70
2021/03/28 04:58:51;;;;;;;39.95;22.80;;;;;;;5.89;58.41;95793.00;4228337;28;20044;-69
2021/03/28 05:01:24;;;;;;;49.42;30.17;;;;;;;5.97;60.07;95795.13;4224928;28;20130;-71
2021/03/28 05:04:16;;;;;;;42.63;28.83;;;;;;;6.07;58.73;95806.56;4212948;28;20131;-71
2021/03/28 05:06:20;;;;;;;69.07;43.95;;;;;;;6.20;58.53;95801.38;4171472;28;20040;-71
2021/03/28 05:08:33;;;;;;;;;;;;;;;6.26;57.84;95800.91;4208635;28;20479;-71
2021/03/28 05:11:31;;;;;;;47.33;23.52;;;;;;;6.25;56.90;95807.91;4226107;28;19931;-69
2021/03/28 05:14:04;;;;;;;42.83;24.10;;;;;;;6.12;57.19;95809.69;4189086;28;20544;-69
2021/03/28 05:16:17;;;;;;;45.53;24.65;;;;;;;6.09;57.75;95808.13;4175094;28;20151;-70
2021/03/28 05:18:49;;;;;;;49.80;24.67;;;;;;;6.17;57.82;95806.78;4207647;28;20052;-71
2021/03/28 05:20:57;;;;;;;42.55;26.27;;;;;;;6.22;57.95;95807.31;4182886;28;20052;-71
2021/03/28 05:23:11;;;;;;;48.30;26.42;;;;;;;6.23;57.30;95806.34;4221634;28;20051;-69
2021/03/28 05:25:50;;;;;;;45.37;25.93;;;;;;;6.26;57.63;95817.38;4224093;28;20070;-71
2021/03/28 05:27:55;;;;;;;46.05;25.77;;;;;;;6.31;57.77;95819.66;4165680;28;20053;-71
2021/03/28 05:33:26;;;;;;;56.92;31.73;;;;;;;6.21;57.47;95824.66;4224450;28;20063;-70
2021/03/28 05:35:33;;;;;;;56.58;31.77;;;;;;;6.02;58.33;95819.88;4205870;28;20052;-70
2021/03/28 05:38:05;;;;;;;58.20;31.15;;;;;;;5.86;59.40;95827.03;4226108;28;20047;-71
2021/03/28 05:40:31;;;;;;;53.67;30.48;;;;;;;5.88;58.61;95832.97;4227443;28;20052;-70
2021/03/28 05:42:32;;;;;;;57.60;30.10;;;;;;;5.76;58.75;95834.59;4208206;28;20127;-70
2021/03/28 05:44:36;;;;;;;51.10;30.85;;;;;;;5.84;59.61;95836.69;4224909;28;20048;-71
2021/03/28 05:46:56;;;;;;;58.40;32.65;;;;;;;6.04;58.67;95836.22;4226669;28;20064;-71
2021/03/28 05:49:15;;;;;;;55.63;30.52;;;;;;;6.24;58.36;95840.09;4221492;28;20056;-71
2021/03/28 05:51:40;;;;;;;60.45;33.45;;;;;;;6.39;57.33;95842.56;4228730;28;20510;-70
2021/03/28 05:54:06;;;;;;;61.63;33.67;;;;;;;6.42;56.86;95852.78;4228283;28;20659;-70
2021/03/28 05:56:52;;;;;;;51.88;32.97;;;;;;;6.56;56.74;95858.69;4210729;28;20477;-70
2021/03/28 05:59:17;;;;;;;60.47;35.67;;;;;;;6.75;56.29;95854.78;4184000;28;20058;-72
2021/03/28 06:02:00;;;;;;;59.90;36.10;;;;;;;6.89;55.82;95852.06;4230611;28;20461;-70
2021/03/28 06:04:26;;;;;;;60.67;33.88;;;;;;;6.88;55.46;95860.84;4164384;28;20055;-71
2021/03/28 06:07:08;;;;;;;58.47;34.22;;;;;;;6.85;55.64;95861.03;4202149;28;20051;-70
2021/03/28 06:09:47;;;;;;;65.00;34.08;;;;;;;6.80;55.96;95852.72;4132773;28;20052;-72
2021/03/28 06:12:15;;;;;;;56.85;34.92;;;;;;;6.85;55.94;95857.59;4211618;28;20079;-71
2021/03/28 06:14:42;;;;;;;58.25;34.03;;;;;;;6.97;55.46;95854.97;4201209;28;20359;-71
2021/03/28 06:16:49;;;;;;;60.38;35.53;;;;;;;7.13;55.26;95859.91;4174538;28;20476;-72
2021/03/28 06:19:09;;;;;;;54.92;34.83;;;;;;;7.26;54.42;95865.06;4213233;28;20055;-70
2021/03/28 06:21:47;;;;;;;60.15;36.22;;;;;;;7.29;54.00;95858.81;4200411;28;20046;-71
2021/03/28 06:24:13;;;;;;;57.97;34.47;;;;;;;7.38;53.92;95861.59;4224448;28;20055;-71
2021/03/28 06:26:39;;;;;;;54.90;34.58;;;;;;;7.49;53.09;95867.81;4213525;28;20045;-72
2021/03/28 06:29:14;;;;;;;54.80;33.38;;;;;;;7.66;53.38;95856.13;4204888;28;20440;-70
2021/03/28 06:31:37;;;;;;;53.08;33.90;;;;;;;7.62;52.83;95860.75;4181828;28;20044;-70
2021/03/28 06:34:24;;;;;;;54.80;34.50;;;;;;;7.41;53.20;95864.94;4229502;27;20059;-71
2021/03/28 06:36:47;;;;;;;62.92;34.90;;;;;;;7.67;53.02;95865.63;4228750;27;20506;-71
2021/03/28 06:39:23;;;;;;;57.50;35.17;;;;;;;7.83;51.93;95863.56;4235490;27;20063;-72
2021/03/28 06:41:38;;;;;;;51.72;30.40;;;;;;;7.84;51.54;95867.81;4222064;28;20557;-82
2021/03/28 06:44:09;;;;;;;51.13;31.52;;;;;;;7.99;51.72;95864.06;4199620;28;20485;-85
2021/03/28 06:46:19;;;;;;;51.63;31.95;;;;;;;7.94;51.47;95862.78;4217510;28;20052;-84
2021/03/28 06:48:29;;;;;;;49.55;31.55;;;;;;;7.88;51.39;95866.66;4224476;28;20043;-87
2021/03/28 06:50:50;;;;;;;48.13;31.55;;;;;;;7.76;52.01;95876.22;4215143;28;20044;-85
2021/03/28 06:53:58;;;;;;;56.17;30.55;;;;;;;7.90;51.56;95869.16;4208985;28;20120;-84
2021/03/28 06:56:27;;;;;;;52.80;30.55;;;;;;;7.92;51.77;95875.09;4239530;28;20039;-84
2021/03/28 06:59:27;;;;;;;48.50;30.30;;;;;;;7.88;51.88;95865.84;4239112;28;20063;-85
2021/03/28 07:02:09;;;;;;;55.67;31.33;;;;;;;7.75;51.86;95876.34;4164020;28;20400;-85
2021/03/28 07:04:38;;;;;;;48.80;30.80;;;;;;;7.92;51.30;95875.09;4225772;28;20053;-84
2021/03/28 07:07:08;;;;;;;43.97;27.20;;;;;;;7.94;51.03;95881.03;4233060;28;20063;-83
2021/03/28 07:09:46;;;;;;;39.83;25.00;;;;;;;7.71;50.50;95877.50;4232877;28;20054;-84
2021/03/28 07:12:05;;;;;;;41.10;26.17;;;;;;;7.68;50.80;95886.41;4213683;28;20056;-85
2021/03/28 07:14:44;;;;;;;45.85;30.08;;;;;;;7.63;51.80;95887.66;4232570;28;20518;-84
2021/03/28 07:17:17;;;;;;;55.13;32.55;;;;;;;7.68;52.26;95891.59;4230473;27;20048;-85
2021/03/28 07:19:56;;;;;;;54.63;33.40;;;;;;;7.72;52.69;95892.19;4223735;28;20143;-84
2021/03/28 07:22:16;;;;;;;48.40;33.88;;;;;;;7.63;52.81;95893.69;4214599;28;20051;-88
2021/03/28 07:24:44;;;;;;;58.15;35.85;;;;;;;7.76;52.53;95897.06;4233895;28;20051;-83
2021/03/28 07:27:10;;;;;;;62.30;37.30;;;;;;;7.72;52.92;95902.63;4215131;28;20542;-84
2021/03/28 07:29:45;;;;;;;56.08;37.65;;;;;;;7.75;52.83;95903.25;4221765;28;20603;-85
2021/03/28 07:32:15;;;;;;;63.80;38.58;;;;;;;7.72;53.23;95906.09;4233160;28;20048;-84
2021/03/28 07:34:54;;;;;;;66.85;39.67;;;;;;;7.65;53.54;95897.03;4221656;28;20120;-84
2021/03/28 07:37:09;;;;;;;67.75;37.60;;;;;;;7.74;53.01;95906.81;4233100;28;20056;-85
2021/03/28 07:39:36;;;;;;;62.78;35.25;;;;;;;7.90;53.07;95905.69;4219427;28;20440;-84
2021/03/28 07:41:55;;;;;;;55.78;34.97;;;;;;;7.96;52.30;95906.06;4213452;28;20445;-85
2021/03/28 07:44:03;;;;;;;57.70;36.35;;;;;;;8.26;52.38;95906.50;4229255;28;20525;-84
2021/03/28 07:46:36;;;;;;;57.67;35.85;;;;;;;8.47;51.58;95915.34;4231357;28;20055;-85
2021/03/28 07:49:08;;;;;;;62.60;36.75;;;;;;;8.65;51.08;95917.50;4213658;28;20127;-86
2021/03/28 07:51:14;;;;;;;55.38;35.05;;;;;;;8.85;50.73;95914.19;4231821;28;20047;-85
2021/03/28 07:53:21;;;;;;;60.60;36.97;;;;;;;9.05;49.75;95910.03;4214218;28;20608;-83
2021/03/28 07:55:26;;;;;;;53.13;36.25;;;;;;;9.33;49.96;95907.88;4216664;28;20052;-84
2021/03/28 07:57:52;;;;;;;56.42;33.83;;;;;;;9.39;49.21;95913.44;4231611;28;20046;-85
2021/03/28 08:00:24;;;;;;;64.38;33.80;;;;;;;9.45;48.56;95919.16;4196280;28;20067;-85
2021/03/28 08:02:25;;;;;;;55.35;36.42;;;;;;;9.51;48.96;95916.06;4213282;28;20040;-86
2021/03/28 08:04:48;;;;;;;56.55;34.42;;;;;;;9.79;48.41;95920.72;4230031;28;20047;-73
2021/03/28 08:07:16;;;;;;;57.95;34.75;;;;;;;10.04;47.46;95918.72;4196288;28;20077;-72
2021/03/28 08:09:22;;;;;;;52.38;32.13;;;;;;;9.90;47.41;95922.47;4226278;28;20129;-72
2021/03/28 08:11:43;;;;;;;48.67;31.45;;;;;;;10.16;47.33;95920.31;4227831;28;20093;-71
2021/03/28 08:14:16;;;;;;;38.70;26.48;;;;;;;10.39;46.51;95920.22;4215915;28;20424;-71
2021/03/28 08:16:28;;;;;;;40.90;26.02;;;;;;;10.56;46.72;95930.16;4186578;28;20044;-72
2021/03/28 08:19:00;;;;;;;39.33;24.92;;;;;;;10.79;45.86;95917.69;4191978;28;20091;-71
2021/03/28 08:21:31;;;;;;;32.03;21.58;;;;;;;11.02;45.17;95915.75;4183466;28;20052;-70
2021/03/28 08:24:00;;;;;;;31.70;19.20;;;;;;;11.14;44.71;95913.03;4206931;28;20048;-71
2021/03/28 08:26:22;;;;;;;29.42;17.48;;;;;;;11.20;44.78;95918.56;4227366;28;20083;-73
2021/03/28 08:28:42;;;;;;;19.90;10.43;;;;;;;11.34;43.87;95917.38;4227401;28;20051;-73
2021/03/28 08:31:13;;;;;;;13.05;8.77;;;;;;;11.53;43.31;95913.97;4217184;28;20052;-83
2021/03/28 08:33:43;;;;;;;18.75;7.57;;;;;;;11.44;43.15;95917.38;4224817;28;20055;-86
2021/03/28 08:35:56;;;;;;;18.95;9.35;;;;;;;11.62;43.31;95922.84;4220204;28;20058;-72
2021/03/28 08:38:28;;;;;;;11.93;7.57;;;;;;;11.83;43.19;95920.94;4218976;28;20055;-73
2021/03/28 08:40:54;;;;;;;9.18;6.97;;;;;;;12.01;43.16;95920.28;4225771;28;20476;-70
2021/03/28 08:43:23;;;;;;;14.00;7.72;;;;;;;11.88;43.90;95910.88;4214938;28;20044;-71
2021/03/28 08:45:48;;;;;;;16.00;9.05;;;;;;;12.24;43.77;95918.22;4226348;28;20051;-73
2021/03/28 08:48:28;;;;;;;13.85;8.98;;;;;;;12.19;43.72;95923.84;4226600;28;20054;-71
2021/03/28 08:50:32;;;;;;;13.65;8.75;;;;;;;12.40;43.80;95918.47;4232971;28;20055;-72
2021/03/28 08:53:07;;;;;;;10.65;8.23;;;;;;;12.61;43.19;95914.84;4214649;28;20044;-72
2021/03/28 08:55:11;;;;;;;10.63;7.63;;;;;;;12.75;43.16;95913.53;4226287;28;20040;-70
2021/03/28 08:57:48;;;;;;;11.30;7.43;;;;;;;12.72;43.19;95905.97;4232513;28;20047;-70
2021/03/28 09:00:04;;;;;;;12.38;7.65;;;;;;;12.88;43.37;95900.91;4230707;28;20048;-86
2021/03/28 09:02:05;;;;;;;12.52;8.85;;;;;;;13.05;43.56;95920.38;4207813;28;20048;-84
2021/03/28 09:04:15;;;;;;;20.90;9.00;;;;;;;12.91;42.83;95919.88;4221245;28;20054;-84
2021/03/28 09:06:48;;;;;;;11.50;7.63;;;;;;;12.47;43.99;95918.72;4230465;28;20077;-83
2021/03/28 09:08:58;;;;;;;19.83;8.50;;;;;;;12.48;44.46;95912.50;4218661;28;20108;-70
2021/03/28 09:11:27;;;;;;;14.00;7.43;;;;;;;12.61;44.07;95925.34;4206159;28;20052;-73
2021/03/28 09:13:44;;;;;;;10.68;6.82;;;;;;;12.73;43.99;95915.50;4197330;28;20051;-72
2021/03/28 09:15:57;;;;;;;11.50;7.47;;;;;;;12.66;44.44;95916.06;4204766;28;20476;-73
2021/03/28 09:18:09;;;;;;;15.30;8.52;;;;;;;12.64;44.59;95928.50;4222044;28;20109;-72
2021/03/28 09:20:13;;;;;;;10.48;7.82;;;;;;;12.69;44.64;95934.19;4241214;27;20074;-71
2021/03/28 09:22:20;;;;;;;15.50;8.65;;;;;;;12.23;46.31;95930.50;4206215;28;20058;-73
2021/03/28 09:24:32;;;;;;;13.30;8.25;;;;;;;12.22;45.78;95922.78;4214138;28;20048;-85
2021/03/28 09:26:56;;;;;;;18.85;8.10;;;;;;;12.47;45.76;95911.66;4201758;28;20075;-86
2021/03/28 09:29:34;;;;;;;10.67;8.27;;;;;;;12.80;45.06;95914.78;4237907;28;20448;-84
2021/03/28 09:31:53;;;;;;;9.32;7.88;;;;;;;12.38;45.42;95935.34;4227087;28;20453;-83
2021/03/28 09:34:11;;;;;;;13.25;7.80;;;;;;;12.22;46.20;95926.22;4234647;28;20062;-73
2021/03/28 09:36:35;;;;;;;19.30;8.05;;;;;;;12.43;46.05;95909.44;4195306;28;20388;-73
2021/03/28 09:39:21;;;;;;;11.15;8.00;;;;;;;12.91;45.38;95911.16;4227142;27;20044;-73
2021/03/28 09:41:33;;;;;;;10.90;7.72;;;;;;;13.39;44.32;95904.88;4214880;28;20059;-74
2021/03/28 09:43:52;;;;;;;10.95;8.23;;;;;;;13.66;44.10;95914.56;4212513;28;20511;-72
2021/03/28 09:46:17;;;;;;;12.50;7.88;;;;;;;13.24;44.94;95945.78;4212239;28;20508;-85
2021/03/28 09:48:40;;;;;;;19.08;8.63;;;;;;;12.30;47.46;95928.13;4234505;28;20121;-90
2021/03/28 09:50:44;;;;;;;18.10;9.30;;;;;;;12.02;48.43;95930.66;4209393;28;20040;-84
2021/03/28 09:52:54;;;;;;;12.45;8.30;;;;;;;11.86;49.12;95943.44;4231487;28;20047;-85
2021/03/28 09:55:14;;;;;;;15.25;7.85;;;;;;;11.80;49.19;95944.81;4226251;28;20071;-86
2021/03/28 09:57:37;;;;;;;10.88;7.82;;;;;;;12.29;48.40;95932.56;4224452;28;20380;-85
2021/03/28 09:59:56;;;;;;;11.93;7.45;;;;;;;12.66;47.54;95926.56;4217310;28;20054;-73
2021/03/28 10:02:26;;;;;;;10.95;7.50;;;;;;;12.71;47.50;95926.13;4211924;28;20049;-73
2021/03/28 10:04:58;;;;;;;13.52;7.80;;;;;;;12.83;47.01;95919.75;4229291;28;20127;-72
2021/03/28 10:07:01;;;;;;;11.43;7.80;;;;;;;12.95;47.15;95925.69;4217282;28;20050;-73
2021/03/28 10:09:18;;;;;;;10.48;7.30;;;;;;;13.13;47.26;95914.41;4217118;27;20521;-72
2021/03/28 10:11:31;;;;;;;10.98;7.45;;;;;;;13.39;46.93;95910.13;4205765;28;20062;-74
2021/03/28 10:13:47;;;;;;;15.30;8.63;;;;;;;13.54;47.71;95920.19;4239787;27;20535;-85
2021/03/28 10:16:21;;;;;;;11.75;8.25;;;;;;;13.48;48.17;95909.25;4229050;27;20104;-86
2021/03/28 10:18:46;;;;;;;11.90;7.00;;;;;;;13.60;47.89;95912.53;4191212;28;20058;-86
2021/03/28 10:20:56;;;;;;;10.95;8.82;;;;;;;13.19;49.48;95916.44;4224023;27;20297;-72
2021/03/28 10:23:09;;;;;;;11.77;8.93;;;;;;;13.14;48.89;95921.31;4211274;28;20136;-72
2021/03/28 10:25:20;;;;;;;11.65;8.98;;;;;;;12.94;49.94;95910.03;4225299;28;20519;-73
2021/03/28 10:27:55;;;;;;;12.68;8.80;;;;;;;13.09;49.50;95925.19;4214057;28;20121;-71
2021/03/28 10:30:28;;;;;;;9.98;8.90;;;;;;;13.20;49.11;95920.72;4238571;27;20101;-73
2021/03/28 10:33:02;;;;;;;12.70;8.95;;;;;;;13.31;48.95;95912.66;4218916;27;20507;-72
2021/03/28 10:35:07;;;;;;;14.20;9.95;;;;;;;13.38;48.72;95924.28;4148617;28;20050;-73
2021/03/28 10:37:41;;;;;;;15.77;9.07;;;;;;;13.28;49.07;95923.47;4227326;28;20048;-71
2021/03/28 10:39:49;;;;;;;12.65;9.32;;;;;;;13.13;50.21;95927.56;4228108;27;20101;-72
2021/03/28 10:42:21;;;;;;;14.05;10.10;;;;;;;13.07;50.19;95932.41;4228209;28;20087;-72
2021/03/28 10:44:47;;;;;;;13.57;9.60;;;;;;;12.70;51.73;95941.09;4212091;28;20055;-72
2021/03/28 10:47:02;;;;;;;12.63;8.75;;;;;;;12.52;52.29;95940.16;4216797;28;20484;-73
2021/03/28 10:49:41;;;;;;;12.73;8.98;;;;;;;12.63;52.23;95939.19;4229985;28;20052;-71
2021/03/28 10:52:04;;;;;;;9.57;8.32;;;;;;;12.53;52.56;95938.38;4229030;28;20043;-72
2021/03/28 10:55:13;;;;;;;16.45;8.98;;;;;;;12.35;53.27;95943.50;4226672;28;20047;-72
2021/03/28 10:57:38;;;;;;;17.48;9.40;;;;;;;12.36;53.49;95945.97;4135251;28;20042;-73
2021/03/28 11:00:38;;;;;;;14.95;8.63;;;;;;;12.37;53.72;95944.19;4226067;28;20051;-72
2021/03/28 11:03:17;;;;;;;14.68;8.88;;;;;;;12.44;53.77;95946.13;4163567;28;20047;-73
2021/03/28 11:05:33;;;;;;;14.25;8.60;;;;;;;12.27;53.95;95958.16;4227141;28;20094;-71